createdAt,value
2023-03-17T00:00:00.311Z,75.9296875
2023-03-17T00:00:59.860Z,75.4853515625
2023-03-17T00:01:59.862Z,75.603515625
2023-03-17T00:02:59.968Z,75.8095703125
2023-03-17T00:03:59.922Z,75.5419921875
2023-03-17T00:05:00.311Z,75.87109375
2023-03-17T00:05:59.908Z,75.892578125
2023-03-17T00:06:59.920Z,75.73828125
2023-03-17T00:07:59.983Z,75.892578125
2023-03-17T00:08:59.843Z,76.15234375
2023-03-17T00:10:02.611Z,76.294921875
2023-03-17T00:10:59.839Z,76.2958984375
2023-03-17T00:12:00.283Z,76.087890625
2023-03-17T00:12:59.989Z,75.984375
2023-03-17T00:13:59.894Z,76.150390625
2023-03-17T00:14:59.921Z,76.126953125
2023-03-17T00:16:00.163Z,76.111328125
2023-03-17T00:16:59.882Z,76.275390625
2023-03-17T00:17:59.969Z,76.1298828125
2023-03-17T00:18:59.898Z,76.1806640625
2023-03-17T00:20:00.305Z,76.2802734375
2023-03-17T00:21:02.225Z,76.564453125
2023-03-17T00:21:59.865Z,76.5751953125
2023-03-17T00:23:00.032Z,76.57421875
2023-03-17T00:23:59.980Z,76.3857421875
2023-03-17T00:24:59.895Z,76.4267578125
2023-03-17T00:25:59.877Z,76.61328125
2023-03-17T00:27:00.302Z,76.6025390625
2023-03-17T00:27:59.890Z,76.5498046875
2023-03-17T00:29:00.016Z,76.5517578125
2023-03-17T00:30:00.295Z,76.4599609375
2023-03-17T00:31:00.024Z,76.3720703125
2023-03-17T00:32:02.251Z,76.3701171875
2023-03-17T00:32:59.888Z,76.3271484375
2023-03-17T00:33:59.970Z,76.13671875
2023-03-17T00:35:00.277Z,76.2041015625
2023-03-17T00:36:00.079Z,76.1240234375
2023-03-17T00:37:00.036Z,76.1318359375
2023-03-17T00:38:00.276Z,76.1328125
2023-03-17T00:38:59.967Z,76.1533203125
2023-03-17T00:40:00.312Z,76.4189453125
2023-03-17T00:40:59.976Z,76.2060546875
2023-03-17T00:41:59.910Z,76.4140625
2023-03-17T00:43:02.390Z,76.48046875
2023-03-17T00:43:59.890Z,76.4775390625
2023-03-17T00:45:00.261Z,76.3671875
2023-03-17T00:45:59.870Z,76.3349609375
2023-03-17T00:47:00.019Z,76.4013671875
2023-03-17T00:47:59.949Z,76.3671875
2023-03-17T00:48:59.964Z,76.4091796875
2023-03-17T00:50:00.300Z,76.533203125
2023-03-17T00:50:59.989Z,76.203125
2023-03-17T00:51:59.904Z,76.2353515625
2023-03-17T00:52:59.933Z,76.359375
2023-03-17T00:54:02.195Z,76.4580078125
2023-03-17T00:55:00.315Z,76.5576171875
2023-03-17T00:55:59.878Z,76.5341796875
2023-03-17T00:57:00.293Z,76.388671875
2023-03-17T00:57:59.874Z,76.5615234375
2023-03-17T00:58:59.886Z,76.478515625
2023-03-17T01:00:00.313Z,76.7490234375
2023-03-17T01:00:59.921Z,77.0361328125
2023-03-17T01:02:00.062Z,76.541015625
2023-03-17T01:02:59.980Z,76.462890625
2023-03-17T01:03:59.993Z,76.4951171875
2023-03-17T01:05:06.690Z,76.4521484375
2023-03-17T01:05:59.879Z,76.6650390625
2023-03-17T01:06:59.977Z,76.728515625
2023-03-17T01:07:59.979Z,76.96484375
2023-03-17T01:08:59.964Z,77.1318359375
2023-03-17T01:10:00.292Z,77.3828125
2023-03-17T01:10:59.948Z,77.5087890625
2023-03-17T01:12:00.293Z,77.5078125
2023-03-17T01:13:00.005Z,77.671875
2023-03-17T01:13:59.881Z,77.59375
2023-03-17T01:15:00.316Z,77.4619140625
2023-03-17T01:16:02.409Z,77.505859375
2023-03-17T01:16:59.919Z,77.59375
2023-03-17T01:18:00.028Z,77.5830078125
2023-03-17T01:19:00.011Z,77.7080078125
2023-03-17T01:20:00.317Z,78.0224609375
2023-03-17T01:20:59.963Z,78.083984375
2023-03-17T01:21:59.871Z,78.25
2023-03-17T01:22:59.998Z,78.1943359375
2023-03-17T01:23:59.844Z,78.0732421875
2023-03-17T01:25:00.267Z,78.25
2023-03-17T01:25:59.971Z,78.2138671875
2023-03-17T01:27:04.668Z,78.1171875
2023-03-17T01:27:59.885Z,77.9697265625
2023-03-17T01:29:00.033Z,77.8935546875
2023-03-17T01:30:00.325Z,77.7958984375
2023-03-17T01:30:59.867Z,77.8828125
2023-03-17T01:32:00.007Z,77.7861328125
2023-03-17T01:32:59.971Z,77.7861328125
2023-03-17T01:33:59.997Z,77.7041015625
2023-03-17T01:35:00.325Z,77.5419921875
2023-03-17T01:35:59.892Z,77.4443359375
2023-03-17T01:37:00.027Z,77.3466796875
2023-03-17T01:38:02.219Z,77.318359375
2023-03-17T01:38:59.969Z,77.3486328125
2023-03-17T01:40:00.249Z,77.4638671875
2023-03-17T01:40:59.995Z,77.2314453125
2023-03-17T01:42:00.297Z,77.1640625
2023-03-17T01:42:59.893Z,77.17578125
2023-03-17T01:43:59.942Z,76.8291015625
2023-03-17T01:45:00.307Z,76.732421875
2023-03-17T01:46:00.053Z,76.806640625
2023-03-17T01:46:59.871Z,76.9267578125
2023-03-17T01:47:59.873Z,76.990234375
2023-03-17T01:49:02.231Z,77.09765625
2023-03-17T01:50:00.305Z,77.0849609375
2023-03-17T01:50:59.972Z,77.138671875
2023-03-17T01:51:59.956Z,77.2802734375
2023-03-17T01:52:59.958Z,77.3486328125
2023-03-17T01:53:59.903Z,77.302734375
2023-03-17T01:55:00.297Z,77.4013671875
2023-03-17T01:55:59.899Z,77.4755859375
2023-03-17T01:57:00.290Z,77.5517578125
2023-03-17T01:58:00.028Z,77.7265625
2023-03-17T01:58:59.853Z,77.8798828125
2023-03-17T02:00:04.765Z,77.86328125
2023-03-17T02:00:59.882Z,77.978515625
2023-03-17T02:02:00.001Z,78.0859375
2023-03-17T02:02:59.997Z,78.1630859375
2023-03-17T02:03:59.973Z,78.1611328125
2023-03-17T02:05:00.292Z,78.3115234375
2023-03-17T02:05:59.859Z,78.3095703125
2023-03-17T02:06:59.893Z,78.5107421875
2023-03-17T02:07:59.969Z,78.5830078125
2023-03-17T02:09:00.036Z,78.439453125
2023-03-17T02:10:00.312Z,78.7216796875
2023-03-17T02:11:02.329Z,78.8623046875
2023-03-17T02:12:00.312Z,78.9482421875
2023-03-17T02:13:00.017Z,79.0263671875
2023-03-17T02:14:00.009Z,79.107421875
2023-03-17T02:15:00.293Z,79.2275390625
2023-03-17T02:15:59.955Z,79.255859375
2023-03-17T02:16:59.912Z,79.4267578125
2023-03-17T02:18:00.004Z,79.4892578125
2023-03-17T02:18:59.936Z,79.5009765625
2023-03-17T02:20:00.303Z,79.5302734375
2023-03-17T02:20:59.905Z,79.4091796875
2023-03-17T02:22:02.356Z,79.484375
2023-03-17T02:23:00.046Z,79.6591796875
2023-03-17T02:23:59.917Z,79.755859375
2023-03-17T02:25:00.307Z,79.72265625
2023-03-17T02:25:59.871Z,79.6796875
2023-03-17T02:27:00.282Z,79.6015625
2023-03-17T02:27:59.979Z,79.6650390625
2023-03-17T02:28:59.967Z,79.6533203125
2023-03-17T02:30:00.277Z,79.8994140625
2023-03-17T02:30:59.939Z,80.056640625
2023-03-17T02:31:59.977Z,80.0712890625
2023-03-17T02:33:02.279Z,80.173828125
2023-03-17T02:33:59.875Z,80.150390625
2023-03-17T02:35:00.285Z,80.1591796875
2023-03-17T02:36:00.094Z,80.017578125
2023-03-17T02:36:59.983Z,79.8759765625
2023-03-17T02:38:00.271Z,79.994140625
2023-03-17T02:39:00.007Z,79.978515625
2023-03-17T02:40:00.282Z,79.982421875
2023-03-17T02:41:00.000Z,79.751953125
2023-03-17T02:42:00.297Z,79.8271484375
2023-03-17T02:43:00.006Z,79.9619140625
2023-03-17T02:44:02.227Z,79.9541015625
2023-03-17T02:45:00.300Z,79.7255859375
2023-03-17T02:45:59.898Z,79.8154296875
2023-03-17T02:46:59.898Z,79.9697265625
2023-03-17T02:47:59.965Z,79.837890625
2023-03-17T02:49:00.004Z,79.87109375
2023-03-17T02:50:00.303Z,80.05859375
2023-03-17T02:50:59.883Z,80.267578125
2023-03-17T02:51:59.981Z,80.26953125
2023-03-17T02:52:59.866Z,79.8818359375
2023-03-17T02:54:00.000Z,79.9921875
2023-03-17T02:55:04.756Z,80.025390625
2023-03-17T02:56:00.010Z,79.96875
2023-03-17T02:57:00.298Z,79.8974609375
2023-03-17T02:57:59.885Z,79.939453125
2023-03-17T02:58:59.856Z,79.94921875
2023-03-17T03:00:00.291Z,79.8955078125
2023-03-17T03:01:00.020Z,79.94921875
2023-03-17T03:02:00.043Z,79.931640625
2023-03-17T03:03:00.041Z,79.953125
2023-03-17T03:04:00.034Z,79.8427734375
2023-03-17T03:05:00.289Z,79.8759765625
2023-03-17T03:06:03.203Z,79.8427734375
2023-03-17T03:06:59.874Z,79.7529296875
2023-03-17T03:07:59.998Z,79.6962890625
2023-03-17T03:09:00.010Z,79.8193359375
2023-03-17T03:10:00.261Z,79.984375
2023-03-17T03:10:59.964Z,79.8740234375
2023-03-17T03:12:00.292Z,79.7880859375
2023-03-17T03:12:59.992Z,79.8525390625
2023-03-17T03:13:59.912Z,80.03515625
2023-03-17T03:15:00.300Z,80.2001953125
2023-03-17T03:16:00.064Z,80.3701171875
2023-03-17T03:17:01.668Z,80.626953125
2023-03-17T03:17:59.875Z,80.767578125
2023-03-17T03:18:59.900Z,80.990234375
2023-03-17T03:20:00.295Z,81.240234375
2023-03-17T03:21:00.039Z,81.3544921875
2023-03-17T03:21:59.970Z,81.287109375
2023-03-17T03:22:59.862Z,81.4033203125
2023-03-17T03:24:00.024Z,81.3681640625
2023-03-17T03:25:00.273Z,81.572265625
2023-03-17T03:25:59.968Z,81.6572265625
2023-03-17T03:27:00.302Z,81.7431640625
2023-03-17T03:28:02.341Z,81.689453125
2023-03-17T03:28:59.999Z,81.8203125
2023-03-17T03:30:00.305Z,81.755859375
2023-03-17T03:30:59.912Z,81.708984375
2023-03-17T03:31:59.878Z,81.7099609375
2023-03-17T03:33:00.067Z,81.70703125
2023-03-17T03:33:59.981Z,81.8154296875
2023-03-17T03:35:00.297Z,81.8984375
2023-03-17T03:36:00.020Z,81.9072265625
2023-03-17T03:37:00.031Z,82.087890625
2023-03-17T03:38:00.130Z,82.173828125
2023-03-17T03:39:02.308Z,82.17578125
2023-03-17T03:40:00.320Z,82.232421875
2023-03-17T03:40:59.983Z,82.23046875
2023-03-17T03:42:00.279Z,82.2763671875
2023-03-17T03:43:02.435Z,82.287109375
2023-03-17T03:44:00.020Z,82.3095703125
2023-03-17T03:45:00.271Z,82.4326171875
2023-03-17T03:45:59.978Z,82.5498046875
2023-03-17T03:46:59.944Z,82.5556640625
2023-03-17T03:48:00.005Z,82.4345703125
2023-03-17T03:49:00.032Z,82.638671875
2023-03-17T03:50:04.756Z,82.66015625
2023-03-17T03:50:59.996Z,82.6923828125
2023-03-17T03:52:00.034Z,82.732421875
2023-03-17T03:52:59.996Z,82.9345703125
2023-03-17T03:54:00.004Z,83.064453125
2023-03-17T03:55:00.328Z,83.00390625
2023-03-17T03:55:59.956Z,83.0400390625
2023-03-17T03:57:00.292Z,83.125
2023-03-17T03:57:59.977Z,83.1357421875
2023-03-17T03:58:59.971Z,83.1875
2023-03-17T04:00:00.269Z,83.2294921875
2023-03-17T04:01:02.325Z,83.3271484375
2023-03-17T04:01:59.866Z,83.2666015625
2023-03-17T04:03:00.101Z,83.341796875
2023-03-17T04:03:59.860Z,83.33203125
2023-03-17T04:05:00.339Z,83.267578125
2023-03-17T04:05:59.943Z,83.1904296875
2023-03-17T04:06:59.971Z,83.2958984375
2023-03-17T04:08:00.010Z,83.3173828125
2023-03-17T04:09:00.008Z,83.337890625
2023-03-17T04:10:00.275Z,83.4541015625
2023-03-17T04:10:59.908Z,83.58203125
2023-03-17T04:12:04.750Z,83.701171875
2023-03-17T04:12:59.876Z,83.798828125
2023-03-17T04:14:00.006Z,83.8408203125
2023-03-17T04:15:00.318Z,83.732421875
2023-03-17T04:16:00.009Z,83.833984375
2023-03-17T04:16:59.921Z,84.0302734375
2023-03-17T04:17:59.878Z,84.0185546875
2023-03-17T04:19:00.015Z,83.7666015625
2023-03-17T04:20:00.304Z,83.77734375
2023-03-17T04:21:00.010Z,83.8173828125
2023-03-17T04:21:59.963Z,83.9130859375
2023-03-17T04:23:02.209Z,83.986328125
2023-03-17T04:23:59.854Z,84.171875
2023-03-17T04:25:00.299Z,84.283203125
2023-03-17T04:25:59.999Z,84.4873046875
2023-03-17T04:27:00.264Z,84.5625
2023-03-17T04:27:59.998Z,84.6796875
2023-03-17T04:28:59.874Z,84.890625
2023-03-17T04:30:00.309Z,85.3154296875
2023-03-17T04:30:59.966Z,85.498046875
2023-03-17T04:31:59.884Z,85.3427734375
2023-03-17T04:33:00.038Z,85.765625
2023-03-17T04:34:02.254Z,86.0625
2023-03-17T04:35:00.326Z,85.99609375
2023-03-17T04:36:00.081Z,85.828125
2023-03-17T04:37:00.030Z,85.9521484375
2023-03-17T04:38:00.283Z,86.177734375
2023-03-17T04:38:59.958Z,86.5634765625
2023-03-17T04:40:00.314Z,86.728515625
2023-03-17T04:40:59.858Z,86.7724609375
2023-03-17T04:42:00.296Z,86.8359375
2023-03-17T04:43:01.888Z,86.81640625
2023-03-17T04:43:59.883Z,86.673828125
2023-03-17T04:45:02.710Z,86.6953125
2023-03-17T04:45:59.962Z,86.7353515625
2023-03-17T04:47:00.019Z,86.8564453125
2023-03-17T04:47:59.965Z,86.716796875
2023-03-17T04:48:59.942Z,86.87109375
2023-03-17T04:50:00.288Z,86.7138671875
2023-03-17T04:50:59.988Z,86.7041015625
2023-03-17T04:51:59.988Z,86.611328125
2023-03-17T04:52:59.968Z,86.7060546875
2023-03-17T04:53:59.955Z,86.8125
2023-03-17T04:55:00.291Z,86.896484375
2023-03-17T04:56:02.240Z,87.1708984375
2023-03-17T04:56:59.897Z,86.986328125
2023-03-17T04:58:00.302Z,86.779296875
2023-03-17T04:58:59.990Z,86.5859375
2023-03-17T05:00:00.349Z,86.5087890625
2023-03-17T05:01:00.042Z,86.3095703125
2023-03-17T05:01:59.893Z,86.4248046875
2023-03-17T05:03:00.024Z,86.4833984375
2023-03-17T05:03:59.990Z,86.46484375
2023-03-17T05:05:00.339Z,87.0078125
2023-03-17T05:05:59.877Z,87.1796875
2023-03-17T05:07:02.340Z,87.408203125
2023-03-17T05:07:59.886Z,87.3740234375
2023-03-17T05:08:59.903Z,87.3076171875
2023-03-17T05:10:00.303Z,87.041015625
2023-03-17T05:10:59.838Z,87.2109375
2023-03-17T05:11:59.977Z,87.3076171875
2023-03-17T05:13:00.297Z,87.30078125
2023-03-17T05:13:59.987Z,87.123046875
2023-03-17T05:15:00.278Z,87.35546875
2023-03-17T05:15:59.972Z,87.2236328125
2023-03-17T05:16:59.863Z,87.05078125
2023-03-17T05:18:04.853Z,87.0595703125
2023-03-17T05:18:59.912Z,87.41796875
2023-03-17T05:20:00.289Z,87.50390625
2023-03-17T05:20:59.963Z,87.646484375
2023-03-17T05:21:59.904Z,87.732421875
2023-03-17T05:23:00.011Z,87.7431640625
2023-03-17T05:23:59.985Z,87.666015625
2023-03-17T05:25:00.318Z,87.619140625
2023-03-17T05:25:59.979Z,87.4873046875
2023-03-17T05:27:00.028Z,87.8212890625
2023-03-17T05:28:00.300Z,87.7373046875
2023-03-17T05:29:02.327Z,87.6044921875
2023-03-17T05:30:00.288Z,87.7080078125
2023-03-17T05:31:00.125Z,87.6953125
2023-03-17T05:31:59.944Z,87.7900390625
2023-03-17T05:33:00.036Z,87.8671875
2023-03-17T05:33:59.908Z,87.9658203125
2023-03-17T05:35:00.307Z,88.115234375
2023-03-17T05:36:00.059Z,88.0703125
2023-03-17T05:36:59.968Z,88.2177734375
2023-03-17T05:38:00.253Z,88.2412109375
2023-03-17T05:38:59.972Z,88.3896484375
2023-03-17T05:40:04.779Z,88.435546875
2023-03-17T05:40:59.956Z,88.6015625
2023-03-17T05:42:00.019Z,88.42578125
2023-03-17T05:43:00.297Z,88.68359375
2023-03-17T05:44:00.000Z,89.0673828125
2023-03-17T05:45:00.297Z,89.18359375
2023-03-17T05:46:00.021Z,88.771484375
2023-03-17T05:46:59.976Z,88.765625
2023-03-17T05:48:00.043Z,88.9248046875
2023-03-17T05:48:59.864Z,89.0673828125
2023-03-17T05:49:59.877Z,89.1220703125
2023-03-17T05:51:02.227Z,89.13671875
2023-03-17T05:51:59.893Z,88.9189453125
2023-03-17T05:52:59.853Z,88.6875
2023-03-17T05:53:59.872Z,88.4990234375
2023-03-17T05:54:59.961Z,88.720703125
2023-03-17T05:56:00.295Z,89.0087890625
2023-03-17T05:57:00.022Z,89.1494140625
2023-03-17T05:58:00.268Z,88.6787109375
2023-03-17T05:58:59.990Z,88.5908203125
2023-03-17T05:59:59.981Z,88.6259765625
2023-03-17T06:00:59.891Z,88.494140625
2023-03-17T06:02:02.264Z,88.513671875
2023-03-17T06:02:59.880Z,88.63671875
2023-03-17T06:04:00.022Z,88.7080078125
2023-03-17T06:04:59.865Z,88.515625
2023-03-17T06:06:00.307Z,88.3720703125
2023-03-17T06:06:59.948Z,88.5888671875
2023-03-17T06:07:59.902Z,88.7265625
2023-03-17T06:09:00.025Z,88.6572265625
2023-03-17T06:09:59.876Z,88.2470703125
2023-03-17T06:11:00.287Z,88.2529296875
2023-03-17T06:11:59.865Z,88.109375
2023-03-17T06:13:04.725Z,88.1455078125
2023-03-17T06:13:59.878Z,88.1328125
2023-03-17T06:14:59.912Z,87.6865234375
2023-03-17T06:15:59.990Z,87.763671875
2023-03-17T06:17:00.275Z,87.412109375
2023-03-17T06:17:59.879Z,87.3330078125
2023-03-17T06:18:59.997Z,87.09765625
2023-03-17T06:20:00.023Z,87.2021484375
2023-03-17T06:20:59.956Z,87.0830078125
2023-03-17T06:22:00.305Z,87.064453125
2023-03-17T06:23:04.543Z,86.9990234375
2023-03-17T06:24:02.369Z,86.9384765625
2023-03-17T06:24:59.869Z,86.9326171875
2023-03-17T06:25:59.998Z,86.7080078125
2023-03-17T06:27:00.326Z,86.4697265625
2023-03-17T06:27:59.924Z,86.2734375
2023-03-17T06:29:00.447Z,86.2353515625
2023-03-17T06:29:59.911Z,86.2109375
2023-03-17T06:30:59.988Z,86.1123046875
2023-03-17T06:32:17.124Z,85.646484375
2023-03-17T06:33:00.251Z,85.4375
2023-03-17T06:34:00.007Z,85.1630859375
2023-03-17T06:35:02.303Z,82.5029296875
2023-03-17T06:35:59.919Z,79.646484375
2023-03-17T06:37:00.293Z,74.96484375
2023-03-17T06:38:00.261Z,73.0908203125
2023-03-17T06:38:59.995Z,71.8671875
2023-03-17T06:39:59.874Z,71.8779296875
2023-03-17T06:41:00.026Z,70.4599609375
2023-03-17T06:42:00.297Z,69.7607421875
2023-03-17T06:43:00.029Z,67.494140625
2023-03-17T06:44:00.415Z,64.84375
2023-03-17T06:45:00.007Z,63.4287109375
2023-03-17T06:46:02.316Z,61.5498046875
2023-03-17T06:47:00.286Z,61.068359375
2023-03-17T06:48:00.012Z,60.490234375
2023-03-17T06:49:00.012Z,60.9599609375
2023-03-17T06:49:59.876Z,63.5087890625
2023-03-17T06:50:59.905Z,65.9453125
2023-03-17T06:52:00.413Z,67.3271484375
2023-03-17T06:52:59.950Z,69.2958984375
2023-03-17T06:54:00.001Z,71.056640625
2023-03-17T06:55:00.241Z,72.462890625
2023-03-17T06:56:00.024Z,73.431640625
2023-03-17T06:57:04.725Z,74.208984375
2023-03-17T06:57:59.930Z,75.0771484375
2023-03-17T06:59:00.283Z,75.7734375
2023-03-17T06:59:59.883Z,76.3603515625
2023-03-17T07:00:59.978Z,77.0751953125
2023-03-17T07:02:00.327Z,77.671875
2023-03-17T07:02:59.987Z,78.1162109375
2023-03-17T07:04:00.008Z,78.474609375
2023-03-17T07:05:00.065Z,78.345703125
2023-03-17T07:06:00.030Z,77.859375
2023-03-17T07:07:00.281Z,77.81640625
2023-03-17T07:08:02.289Z,78.3515625
2023-03-17T07:09:01.981Z,78.541015625
2023-03-17T07:09:59.902Z,78.2958984375
2023-03-17T07:10:59.866Z,78.1298828125
2023-03-17T07:12:00.310Z,77.958984375
2023-03-17T07:12:59.856Z,78.048828125
2023-03-17T07:14:00.332Z,78.1123046875
2023-03-17T07:14:59.872Z,77.6728515625
2023-03-17T07:16:00.673Z,77.453125
2023-03-17T07:17:00.274Z,77.23828125
2023-03-17T07:17:59.870Z,77.4560546875
2023-03-17T07:19:02.195Z,77.6708984375
2023-03-17T07:19:59.888Z,77.5263671875
2023-03-17T07:20:59.869Z,77.048828125
2023-03-17T07:21:59.878Z,76.9619140625
2023-03-17T07:23:00.290Z,77.14453125
2023-03-17T07:23:59.893Z,76.72265625
2023-03-17T07:24:59.907Z,76.6279296875
2023-03-17T07:25:59.906Z,76.4921875
2023-03-17T07:26:59.881Z,75.98828125
2023-03-17T07:28:00.300Z,75.60546875
2023-03-17T07:29:00.286Z,75.087890625
2023-03-17T07:30:02.272Z,74.810546875
2023-03-17T07:30:59.898Z,74.638671875
2023-03-17T07:31:59.877Z,74.2060546875
2023-03-17T07:33:00.347Z,74.021484375
2023-03-17T07:33:59.866Z,73.8955078125
2023-03-17T07:34:59.849Z,74.048828125
2023-03-17T07:35:59.934Z,73.2080078125
2023-03-17T07:36:59.873Z,73.1396484375
2023-03-17T07:38:00.300Z,72.673828125
2023-03-17T07:38:59.854Z,72.240234375
2023-03-17T07:39:59.850Z,71.9775390625
2023-03-17T07:41:01.659Z,71.7294921875
2023-03-17T07:41:59.892Z,71.1435546875
2023-03-17T07:43:00.290Z,70.736328125
2023-03-17T07:44:00.314Z,71.1220703125
2023-03-17T07:44:59.855Z,71.0908203125
2023-03-17T07:45:59.986Z,70.94140625
2023-03-17T07:46:59.865Z,70.4208984375
2023-03-17T07:48:00.314Z,70.263671875
2023-03-17T07:48:59.869Z,70.0751953125
2023-03-17T07:49:59.878Z,69.337890625
2023-03-17T07:50:59.864Z,69.330078125
2023-03-17T07:52:02.232Z,69.943359375
2023-03-17T07:53:00.300Z,69.9375
2023-03-17T07:53:59.936Z,69.7353515625
2023-03-17T07:54:59.880Z,69.4814453125
2023-03-17T07:55:59.890Z,69.060546875
2023-03-17T07:56:59.850Z,68.890625
2023-03-17T07:58:00.376Z,67.9912109375
2023-03-17T07:59:00.253Z,68.1171875
2023-03-17T07:59:59.892Z,68.0615234375
2023-03-17T08:00:59.863Z,67.4296875
2023-03-17T08:02:00.066Z,67.072265625
2023-03-17T08:03:10.320Z,66.8583984375
2023-03-17T08:03:59.972Z,66.40234375
2023-03-17T08:04:59.868Z,66.337890625
2023-03-17T08:05:59.850Z,66.3291015625
2023-03-17T08:06:59.852Z,65.7978515625
2023-03-17T08:08:00.307Z,65.833984375
2023-03-17T08:08:59.850Z,65.7109375
2023-03-17T08:09:59.845Z,65.474609375
2023-03-17T08:10:59.868Z,64.1875
2023-03-17T08:11:59.868Z,64.1396484375
2023-03-17T08:13:00.296Z,64.720703125
2023-03-17T08:14:04.740Z,64.6025390625
2023-03-17T08:14:59.821Z,64.60546875
2023-03-17T08:15:59.869Z,64.44140625
2023-03-17T08:16:59.987Z,63.611328125
2023-03-17T08:18:00.329Z,63.5859375
2023-03-17T08:18:59.881Z,63.53125
2023-03-17T08:20:00.131Z,62.9287109375
2023-03-17T08:20:59.911Z,62.6865234375
2023-03-17T08:21:59.921Z,62.259765625
2023-03-17T08:23:00.323Z,61.4580078125
2023-03-17T08:23:59.928Z,61.7490234375
2023-03-17T08:25:02.262Z,61.4912109375
2023-03-17T08:25:59.883Z,60.6591796875
2023-03-17T08:27:00.928Z,60.376953125
2023-03-17T08:28:00.307Z,59.9267578125
2023-03-17T08:29:00.310Z,59.6162109375
2023-03-17T08:29:59.902Z,59.255859375
2023-03-17T08:30:59.873Z,59.298828125
2023-03-17T08:31:59.889Z,59.4736328125
2023-03-17T08:33:00.373Z,59.2138671875
2023-03-17T08:33:59.863Z,59.3544921875
2023-03-17T08:34:59.844Z,59.2646484375
2023-03-17T08:36:02.269Z,58.7275390625
2023-03-17T08:36:59.897Z,58.7548828125
2023-03-17T08:38:00.427Z,58.2626953125
2023-03-17T08:38:59.845Z,58.3388671875
2023-03-17T08:39:59.936Z,58.333984375
2023-03-17T08:40:59.849Z,57.5234375
2023-03-17T08:41:59.870Z,58.0751953125
2023-03-17T08:43:00.287Z,58.4267578125
2023-03-17T08:44:00.366Z,58.5849609375
2023-03-17T08:44:59.849Z,58.4453125
2023-03-17T08:45:59.870Z,58.2314453125
2023-03-17T08:47:02.206Z,57.9873046875
2023-03-17T08:48:00.285Z,57.70703125
2023-03-17T08:48:59.857Z,57.546875
2023-03-17T08:49:59.853Z,57.1875
2023-03-17T08:50:59.865Z,56.7578125
2023-03-17T08:51:59.870Z,56.5048828125
2023-03-17T08:53:00.296Z,56.2041015625
2023-03-17T08:53:59.882Z,55.96875
2023-03-17T08:54:59.869Z,55.556640625
2023-03-17T08:55:59.865Z,55.30078125
2023-03-17T08:56:59.865Z,54.9345703125
2023-03-17T08:58:04.744Z,54.384765625
2023-03-17T08:59:00.380Z,53.853515625
2023-03-17T08:59:59.867Z,53.2080078125
2023-03-17T09:00:59.947Z,52.228515625
2023-03-17T09:01:59.863Z,52.0244140625
2023-03-17T09:03:00.367Z,51.41015625
2023-03-17T09:03:59.846Z,50.6787109375
2023-03-17T09:04:59.872Z,50.2900390625
2023-03-17T09:06:00.134Z,50.1025390625
2023-03-17T09:07:03.692Z,49.802734375
2023-03-17T09:08:00.320Z,49.123046875
2023-03-17T09:09:02.216Z,48.7314453125
2023-03-17T09:09:59.853Z,48.0966796875
2023-03-17T09:10:59.858Z,46.9990234375
2023-03-17T09:11:59.893Z,46.3486328125
2023-03-17T09:13:00.321Z,45.625
2023-03-17T09:14:00.377Z,45.056640625
2023-03-17T09:14:59.879Z,44.109375
2023-03-17T09:15:59.948Z,43.9736328125
2023-03-17T09:16:59.848Z,43.65625
2023-03-17T09:18:00.316Z,43.0087890625
2023-03-17T09:18:59.878Z,43.0908203125
2023-03-17T09:20:02.238Z,42.4482421875
2023-03-17T09:20:59.872Z,42.349609375
2023-03-17T09:21:59.864Z,41.296875
2023-03-17T09:23:00.429Z,41.73046875
2023-03-17T09:24:02.365Z,41.3232421875
2023-03-17T09:24:59.945Z,41.21875
2023-03-17T09:25:59.948Z,41.2490234375
2023-03-17T09:27:00.337Z,41.0146484375
2023-03-17T09:28:00.752Z,40.923828125
2023-03-17T09:29:02.499Z,40.927734375
2023-03-17T09:29:59.887Z,40.419921875
2023-03-17T09:31:02.214Z,40.4248046875
2023-03-17T09:31:59.873Z,40.0986328125
2023-03-17T09:33:00.348Z,40.5986328125
2023-03-17T09:33:59.953Z,41.5234375
2023-03-17T09:34:59.860Z,41.1923828125
2023-03-17T09:35:59.975Z,40.72265625
2023-03-17T09:36:59.850Z,40.951171875
2023-03-17T09:38:00.405Z,41.6552734375
2023-03-17T09:38:59.873Z,42.015625
2023-03-17T09:39:59.870Z,42.5615234375
2023-03-17T09:40:59.867Z,41.9560546875
2023-03-17T09:42:02.209Z,41.33984375
2023-03-17T09:43:00.286Z,41.24609375
2023-03-17T09:44:00.276Z,40.29296875
2023-03-17T09:44:59.860Z,40.7373046875
2023-03-17T09:45:59.851Z,40.4501953125
2023-03-17T09:46:59.871Z,39.4580078125
2023-03-17T09:48:00.270Z,40.322265625
2023-03-17T09:48:59.865Z,40.1298828125
2023-03-17T09:49:59.880Z,39.376953125
2023-03-17T09:50:59.864Z,38.7314453125
2023-03-17T09:51:59.894Z,38.4189453125
2023-03-17T09:53:04.727Z,37.63671875
2023-03-17T09:53:59.950Z,38.21484375
2023-03-17T09:54:59.997Z,38.484375
2023-03-17T09:55:59.886Z,38.51953125
2023-03-17T09:56:59.865Z,37.9619140625
2023-03-17T09:58:00.282Z,37.9658203125
2023-03-17T09:59:00.266Z,37.576171875
2023-03-17T09:59:59.870Z,38.5126953125
2023-03-17T10:00:59.893Z,38.5673828125
2023-03-17T10:01:59.898Z,38.546875
2023-03-17T10:03:00.245Z,38.8037109375
2023-03-17T10:04:02.230Z,38.6064453125
2023-03-17T10:04:59.886Z,38.138671875
2023-03-17T10:05:59.874Z,37.87890625
2023-03-17T10:06:59.878Z,37.9638671875
2023-03-17T10:08:00.266Z,37.4873046875
2023-03-17T10:08:59.892Z,37.1044921875
2023-03-17T10:09:59.876Z,37.1025390625
2023-03-17T10:10:59.869Z,38.2216796875
2023-03-17T10:11:59.874Z,38.3955078125
2023-03-17T10:13:00.261Z,38.2197265625
2023-03-17T10:14:00.268Z,37.4599609375
2023-03-17T10:15:02.233Z,37.08203125
2023-03-17T10:15:59.885Z,36.744140625
2023-03-17T10:16:59.862Z,36.4306640625
2023-03-17T10:18:00.273Z,37.1630859375
2023-03-17T10:18:59.880Z,37.2685546875
2023-03-17T10:20:00.369Z,36.66796875
2023-03-17T10:20:59.869Z,37.3583984375
2023-03-17T10:21:59.858Z,37.646484375
2023-03-17T10:23:00.303Z,37.3564453125
2023-03-17T10:23:59.878Z,38.2568359375
2023-03-17T10:25:02.372Z,37.98828125
2023-03-17T10:26:01.649Z,38.4716796875
2023-03-17T10:26:59.883Z,38.80078125
2023-03-17T10:28:00.295Z,39.322265625
2023-03-17T10:29:00.265Z,39.0400390625
2023-03-17T10:29:59.852Z,38.892578125